Time;durP1;ratioP1;P1;durP2;ratioP2;P2;SDS_P1;SDS_P2;PMS_P1;PMS_P2;Temp;Humidity;BMP_temperature;BMP_pressure;BME280_temperature;BME280_humidity;BME280_pressure;Samples;Min_cycle;Max_cycle;Signal;HPM_P1;HPM_P2
2021/12/07 00:01:09;;;;;;;57.50;26.23;;;;;;;0.15;89.77;97576.63;1752283;81;21600;-57
2021/12/07 00:03:35;;;;;;;54.90;27.87;;;;;;;0.17;89.79;97570.58;1770542;80;21510;-57
2021/12/07 00:06:03;;;;;;;52.08;26.85;;;;;;;0.19;89.90;97565.83;1792797;80;20944;-57
2021/12/07 00:08:29;;;;;;;60.40;28.70;;;;;;;0.16;90.28;97558.27;1792063;80;32710;-57
2021/12/07 00:10:56;;;;;;;51.70;25.95;;;;;;;0.13;90.19;97557.91;1792636;80;20874;-58
2021/12/07 00:13:24;;;;;;;50.45;24.63;;;;;;;0.10;90.06;97560.52;1792444;80;21546;-57
2021/12/07 00:15:50;;;;;;;55.45;26.30;;;;;;;0.09;90.13;97562.08;1776591;80;21522;-57
2021/12/07 00:18:16;;;;;;;53.45;24.47;;;;;;;0.11;89.91;97573.31;1741370;81;21606;-57
2021/12/07 00:20:42;;;;;;;48.38;22.45;;;;;;;0.11;89.89;97579.98;1751555;81;21038;-57
2021/12/07 00:23:09;;;;;;;52.83;24.63;;;;;;;0.08;89.87;97569.23;1751567;81;20886;-57
2021/12/07 00:25:36;;;;;;;50.52;26.07;;;;;;;0.06;90.11;97569.16;1751376;81;21029;-57
2021/12/07 00:28:02;;;;;;;53.78;26.55;;;;;;;-0.01;90.80;97569.23;1755247;81;22471;-57
2021/12/07 00:30:32;;;;;;;53.48;25.88;;;;;;;-0.03;90.60;97566.80;1760908;81;21532;-57
2021/12/07 00:33:33;;;;;;;63.25;29.90;;;;;;;-0.07;90.94;97571.48;1750846;80;21187;-58
2021/12/07 00:35:36;;;;;;;57.50;24.92;;;;;;;-0.08;90.71;97571.19;1722552;81;21526;-57
2021/12/07 00:38:10;;;;;;;56.40;27.27;;;;;;;-0.14;91.15;97566.22;1757496;81;21019;-59
2021/12/07 00:40:37;;;;;;;62.23;27.10;;;;;;;-0.17;91.49;97570.67;1750054;81;22248;-59
2021/12/07 00:43:03;;;;;;;60.60;27.48;;;;;;;-0.21;91.84;97568.14;1768058;80;22266;-59
2021/12/07 00:45:32;;;;;;;53.58;25.00;;;;;;;-0.23;91.62;97571.55;1792445;80;21055;-57
2021/12/07 00:47:56;;;;;;;58.48;27.17;;;;;;;-0.24;92.04;97574.44;1769708;80;21495;-58
2021/12/07 00:50:23;;;;;;;66.67;29.15;;;;;;;-0.24;92.01;97572.59;1751969;81;21635;-58
2021/12/07 00:52:49;;;;;;;58.75;25.05;;;;;;;-0.25;92.33;97572.30;1761547;80;21569;-58
2021/12/07 00:55:19;;;;;;;57.70;27.75;;;;;;;-0.24;92.28;97568.59;1792385;80;21044;-58
2021/12/07 00:57:45;;;;;;;64.03;28.35;;;;;;;-0.22;92.34;97571.84;1775350;80;21497;-58
2021/12/07 01:00:14;;;;;;;53.17;24.65;;;;;;;-0.19;91.68;97566.06;1730661;82;21687;-58
2021/12/07 01:02:41;;;;;;;49.95;24.20;;;;;;;-0.22;92.22;97565.70;1753986;81;21158;-58
2021/12/07 01:05:14;;;;;;;52.90;25.00;;;;;;;-0.20;91.75;97562.30;1761166;81;21266;-58
2021/12/07 01:26:22;;;;;;;57.93;26.05;;;;;;;-0.31;92.52;97565.19;1751473;81;21139;-58
2021/12/07 01:28:48;;;;;;;51.05;23.73;;;;;;;-0.27;91.96;97565.55;1758631;81;21136;-57
2021/12/07 01:31:25;;;;;;;59.45;28.10;;;;;;;-0.34;92.54;97567.78;1761419;81;21649;-57
2021/12/07 01:44:50;;;;;;;56.53;24.12;;;;;;;-0.29;92.67;97548.46;1720165;83;21482;-57
2021/12/07 01:52:26;;;;;;;60.40;26.52;;;;;;;-0.27;92.61;97541.06;1849747;76;26520;-57
2021/12/07 02:00:08;;;;;;;68.87;29.60;;;;;;;-0.30;92.17;97539.66;1772506;81;20984;-57
2021/12/07 02:02:33;;;;;;;60.73;27.35;;;;;;;-0.26;92.04;97545.34;1785473;79;21055;-57
2021/12/07 02:04:59;;;;;;;68.87;29.60;;;;;;;-0.22;91.87;97540.41;1733806;82;20891;-58
2021/12/07 02:07:26;;;;;;;56.37;27.52;;;;;;;-0.30;92.31;97536.19;1768114;79;22538;-57
2021/12/07 02:09:56;;;;;;;65.75;32.93;;;;;;;-0.29;91.99;97529.82;1795164;79;22267;-58
2021/12/07 02:12:20;;;;;;;70.47;35.33;;;;;;;-0.27;91.99;97533.06;1775672;80;21545;-57
2021/12/07 02:14:46;;;;;;;66.17;32.98;;;;;;;-0.23;91.67;97536.12;1744195;81;20869;-57
2021/12/07 02:17:21;;;;;;;56.08;26.00;;;;;;;-0.20;91.65;97535.14;1792501;79;21544;-57
2021/12/07 02:19:46;;;;;;;63.40;27.52;;;;;;;-0.18;91.82;97535.73;1759703;81;21025;-58
2021/12/07 02:22:12;;;;;;;63.85;27.50;;;;;;;-0.16;91.82;97541.67;1759877;81;21179;-57
2021/12/07 02:24:39;;;;;;;60.45;29.40;;;;;;;-0.19;91.77;97532.77;1759573;81;21630;-57
2021/12/07 02:27:05;;;;;;;57.33;27.70;;;;;;;-0.19;91.66;97535.44;1760119;81;20982;-57
2021/12/07 02:29:31;;;;;;;65.65;29.65;;;;;;;-0.13;91.58;97537.22;1762293;81;21083;-57
2021/12/07 02:31:58;;;;;;;66.05;29.75;;;;;;;-0.13;91.63;97539.06;1762409;81;20965;-58
2021/12/07 02:34:25;;;;;;;68.78;28.50;;;;;;;-0.17;91.80;97536.05;1763425;81;21522;-57
2021/12/07 02:36:53;;;;;;;54.53;25.68;;;;;;;-0.33;92.30;97528.66;1763794;81;21015;-57
2021/12/07 02:39:34;;;;;;;57.43;29.02;;;;;;;-0.37;92.51;97525.60;1763544;81;21074;-57
2021/12/07 02:42:01;;;;;;;60.28;27.13;;;;;;;-0.32;92.01;97521.77;1764069;79;21043;-58
2021/12/07 02:44:27;;;;;;;59.35;26.48;;;;;;;-0.34;92.49;97523.03;1794989;79;20977;-58
2021/12/07 02:46:53;;;;;;;61.58;25.75;;;;;;;-0.40;92.67;97526.06;1795205;79;21459;-57
2021/12/07 02:49:20;;;;;;;53.80;25.90;;;;;;;-0.37;92.39;97519.47;1795064;79;20845;-58
2021/12/07 02:51:47;;;;;;;61.30;29.23;;;;;;;-0.34;92.26;97521.19;1755178;79;20988;-58
2021/12/07 02:54:13;;;;;;;52.67;26.23;;;;;;;-0.40;92.56;97517.26;1761167;81;21015;-58
2021/12/07 02:56:39;;;;;;;66.00;29.12;;;;;;;-0.43;92.53;97514.50;1763692;81;20983;-57
2021/12/07 02:59:04;;;;;;;59.95;29.15;;;;;;;-0.43;92.88;97516.34;1790769;79;21458;-57
2021/12/07 03:01:34;;;;;;;59.77;27.93;;;;;;;-0.43;92.85;97519.83;1795093;79;20937;-57
2021/12/07 03:06:42;;;;;;;60.50;28.40;;;;;;;-0.40;92.61;97525.25;1792513;80;21005;-58
2021/12/07 03:28:00;;;;;;;64.30;29.25;;;;;;;-0.18;91.88;97542.91;1774207;80;21060;-57
2021/12/07 03:30:26;;;;;;;64.85;28.65;;;;;;;-0.19;91.66;97543.42;1792766;80;21612;-57
2021/12/07 03:32:52;;;;;;;62.23;28.07;;;;;;;-0.16;91.62;97548.33;1792527;80;20996;-57
2021/12/07 03:35:18;;;;;;;56.10;27.50;;;;;;;-0.17;91.71;97546.70;1792673;80;20866;-57
2021/12/07 03:37:44;;;;;;;50.20;26.93;;;;;;;-0.20;91.75;97547.13;1775993;80;21602;-57
2021/12/07 03:40:10;;;;;;;52.25;25.85;;;;;;;-0.16;91.61;97553.66;1702034;82;21132;-57
2021/12/07 03:42:36;;;;;;;53.23;25.20;;;;;;;-0.17;91.65;97552.03;1792376;80;21565;-57
2021/12/07 03:45:04;;;;;;;52.43;25.08;;;;;;;-0.18;91.51;97539.72;1792412;80;20917;-57
2021/12/07 03:47:30;;;;;;;49.15;25.10;;;;;;;-0.16;91.46;97552.32;1786158;80;21058;-57
2021/12/07 03:49:56;;;;;;;50.30;24.47;;;;;;;-0.20;91.49;97548.98;1761170;81;22393;-57
2021/12/07 03:52:22;;;;;;;45.90;23.00;;;;;;;-0.19;91.47;97547.94;1753937;81;20950;-57
2021/12/07 03:54:48;;;;;;;56.75;26.85;;;;;;;-0.27;91.61;97548.23;1761451;81;20872;-57
2021/12/07 03:57:14;;;;;;;51.15;23.30;;;;;;;-0.29;91.41;97552.45;1754039;81;20918;-57
2021/12/07 03:59:40;;;;;;;55.17;23.47;;;;;;;-0.26;91.42;97554.66;1761161;81;20893;-57
2021/12/07 04:02:07;;;;;;;49.40;25.17;;;;;;;-0.24;91.22;97557.94;1761203;81;21561;-58
2021/12/07 04:04:34;;;;;;;53.68;24.32;;;;;;;-0.21;91.22;97561.48;1751396;81;21441;-57
2021/12/07 04:07:00;;;;;;;55.60;24.12;;;;;;;-0.16;91.29;97557.65;1751542;81;21037;-57
2021/12/07 04:09:26;;;;;;;50.15;23.50;;;;;;;-0.12;91.20;97567.33;1761302;81;20833;-57
2021/12/07 04:11:53;;;;;;;52.43;23.65;;;;;;;-0.12;91.14;97570.80;1761063;81;20947;-57
2021/12/07 04:14:20;;;;;;;46.05;23.52;;;;;;;-0.10;91.07;97565.25;1751644;81;21193;-57
2021/12/07 04:16:46;;;;;;;51.60;23.00;;;;;;;-0.09;91.04;97577.00;1757645;81;21052;-58
2021/12/07 04:19:12;;;;;;;47.50;22.30;;;;;;;-0.10;91.04;97572.72;1760987;81;20962;-57
2021/12/07 04:21:37;;;;;;;54.93;25.82;;;;;;;-0.08;91.01;97572.00;1761089;81;20829;-57
2021/12/07 04:24:03;;;;;;;50.33;24.27;;;;;;;-0.08;91.08;97568.53;1786991;80;21596;-57
2021/12/07 04:26:31;;;;;;;55.58;26.97;;;;;;;-0.11;91.08;97571.09;1792428;79;21530;-57
2021/12/07 04:28:57;;;;;;;49.55;23.70;;;;;;;-0.12;91.18;97569.47;1744750;80;21024;-57
2021/12/07 04:31:23;;;;;;;47.58;25.23;;;;;;;-0.12;91.13;97569.98;1741054;81;21135;-57
2021/12/07 04:33:49;;;;;;;45.75;24.15;;;;;;;-0.13;91.13;97573.17;1758388;81;20924;-57
2021/12/07 04:36:15;;;;;;;53.00;23.20;;;;;;;-0.15;91.24;97569.92;1761136;81;20987;-57
2021/12/07 04:38:41;;;;;;;51.37;25.60;;;;;;;-0.12;91.24;97563.33;1754683;81;21548;-57
2021/12/07 04:41:08;;;;;;;51.08;24.85;;;;;;;-0.08;91.12;97565.86;1751469;81;21066;-57
2021/12/07 04:43:35;;;;;;;47.95;22.82;;;;;;;-0.10;91.20;97564.73;1757593;81;21004;-57
2021/12/07 04:46:12;;;;;;;61.18;26.33;;;;;;;-0.10;91.06;97568.72;1761325;81;21015;-57
2021/12/07 04:59:19;;;;;;;55.10;25.90;;;;;;;-0.07;91.02;97567.48;1752040;81;21635;-57
2021/12/07 05:01:45;;;;;;;49.48;24.12;;;;;;;-0.04;90.95;97572.36;1751539;81;21434;-57
2021/12/07 05:04:19;;;;;;;47.17;26.20;;;;;;;-0.11;91.39;97572.95;1787400;80;21743;-57
2021/12/07 05:06:47;;;;;;;58.90;27.07;;;;;;;-0.16;91.30;97570.16;1789859;80;22162;-57
2021/12/07 05:12:04;;;;;;;50.30;23.92;;;;;;;-0.20;91.49;97575.61;1771273;80;20989;-57
2021/12/07 05:14:24;;;;;;;56.73;24.87;;;;;;;-0.23;91.72;97570.73;1775279;80;21045;-57
2021/12/07 05:16:57;;;;;;;49.40;24.67;;;;;;;-0.25;91.88;97578.14;1791767;80;21471;-57
2021/12/07 05:38:21;;;;;;;41.25;19.70;;;;;;;-0.48;93.29;97556.15;1760488;80;21301;-57
2021/12/07 05:40:46;;;;;;;46.68;22.40;;;;;;;-0.45;93.18;97553.03;1736058;81;20953;-56
2021/12/07 05:43:12;;;;;;;40.35;19.00;;;;;;;-0.41;92.85;97552.91;1756569;81;22328;-57
2021/12/07 05:45:39;;;;;;;47.40;23.50;;;;;;;-0.43;92.91;97553.10;1759607;81;20926;-57
2021/12/07 05:48:05;;;;;;;41.45;20.97;;;;;;;-0.41;92.87;97547.06;1751666;81;21034;-57
2021/12/07 05:50:33;;;;;;;41.75;22.32;;;;;;;-0.46;93.35;97556.22;1751616;81;21586;-57
2021/12/07 05:52:59;;;;;;;45.50;20.68;;;;;;;-0.38;92.71;97551.12;1751604;81;21045;-56
2021/12/07 05:55:25;;;;;;;41.65;22.27;;;;;;;-0.35;92.44;97555.47;1751825;81;21544;-57
2021/12/07 05:57:52;;;;;;;43.20;24.40;;;;;;;-0.33;92.68;97560.61;1751445;81;21515;-57
2021/12/07 06:00:26;;;;;;;44.98;21.50;;;;;;;-0.31;92.61;97557.19;1751848;81;21065;-57
2021/12/07 06:02:57;;;;;;;43.25;21.95;;;;;;;-0.31;92.75;97564.66;1754722;81;21034;-56
2021/12/07 06:05:24;;;;;;;45.03;21.55;;;;;;;-0.31;92.46;97558.53;1760616;81;21019;-57
2021/12/07 06:07:50;;;;;;;42.20;21.10;;;;;;;-0.40;92.46;97566.52;1760004;81;21719;-57
2021/12/07 06:10:16;;;;;;;42.80;22.10;;;;;;;-0.40;92.48;97563.84;1753024;81;21009;-57
2021/12/07 06:12:42;;;;;;;45.05;21.17;;;;;;;-0.38;92.25;97565.77;1751386;81;21571;-57
2021/12/07 06:15:09;;;;;;;43.63;20.50;;;;;;;-0.40;92.67;97568.66;1751779;81;20918;-57
2021/12/07 06:17:35;;;;;;;52.98;22.17;;;;;;;-0.43;92.64;97568.27;1750993;81;21027;-57
2021/12/07 06:20:02;;;;;;;39.05;19.37;;;;;;;-0.40;92.69;97563.84;1731247;82;21572;-57
2021/12/07 06:22:28;;;;;;;64.50;23.38;;;;;;;-0.44;93.08;97566.64;1788683;80;21083;-56
2021/12/07 06:24:54;;;;;;;41.85;21.07;;;;;;;-0.39;92.97;97569.47;1793058;80;21391;-57
2021/12/07 06:27:20;;;;;;;52.43;24.10;;;;;;;-0.33;92.65;97573.39;1792277;80;20912;-56
2021/12/07 06:29:46;;;;;;;69.82;40.43;;;;;;;-0.27;92.74;97569.02;1793035;80;20869;-57
2021/12/07 06:32:12;;;;;;;67.75;32.03;;;;;;;-0.23;92.47;97578.73;1763816;80;21534;-56
2021/12/07 06:34:38;;;;;;;43.65;24.23;;;;;;;-0.20;92.37;97571.09;1761033;81;20931;-57
2021/12/07 06:37:04;;;;;;;38.95;20.32;;;;;;;-0.21;92.29;97576.65;1760605;80;20943;-56
2021/12/07 06:39:30;;;;;;;43.78;20.70;;;;;;;-0.23;92.13;97570.73;1760951;81;21086;-56
2021/12/07 06:41:56;;;;;;;42.73;19.00;;;;;;;-0.24;92.10;97570.45;1754159;81;21005;-57
2021/12/07 06:44:22;;;;;;;43.68;18.23;;;;;;;-0.20;92.00;97576.94;1751356;81;21681;-57
2021/12/07 06:46:48;;;;;;;36.55;16.17;;;;;;;-0.18;91.97;97571.68;1743584;81;20938;-57
2021/12/07 06:49:17;;;;;;;30.10;16.70;;;;;;;-0.13;91.88;97582.50;1751646;81;20871;-57
2021/12/07 06:51:43;;;;;;;30.60;17.02;;;;;;;-0.10;91.87;97582.56;1757021;81;21092;-57
2021/12/07 06:54:08;;;;;;;28.62;14.83;;;;;;;-0.10;91.74;97582.04;1766838;80;21065;-56
2021/12/07 06:56:34;;;;;;;30.45;15.43;;;;;;;-0.08;91.72;97585.84;1750158;81;21541;-57
2021/12/07 06:59:00;;;;;;;48.42;23.65;;;;;;;-0.04;91.61;97588.34;1775358;80;21682;-57
2021/12/07 07:01:26;;;;;;;58.23;27.35;;;;;;;-0.04;91.30;97597.66;1780093;80;20985;-57
2021/12/07 07:03:52;;;;;;;42.00;21.70;;;;;;;-0.04;91.24;97598.47;1746741;81;21328;-57
2021/12/07 07:06:18;;;;;;;45.45;22.15;;;;;;;-0.02;91.30;97596.40;1742484;80;20963;-57
2021/12/07 07:08:44;;;;;;;48.28;28.25;;;;;;;0.02;91.29;97599.45;1740960;81;21458;-57
2021/12/07 07:11:10;;;;;;;43.98;24.25;;;;;;;0.05;91.31;97598.18;1744236;80;22052;-57
2021/12/07 07:13:36;;;;;;;45.20;23.40;;;;;;;0.07;91.28;97602.76;1751443;81;20874;-57
2021/12/07 07:16:01;;;;;;;53.40;26.68;;;;;;;0.04;90.96;97605.88;1739365;81;20896;-57
2021/12/07 07:18:27;;;;;;;41.28;20.72;;;;;;;-0.03;91.05;97613.94;1762709;79;21453;-57
2021/12/07 07:20:55;;;;;;;40.15;18.73;;;;;;;0.01;91.23;97612.48;1731027;80;21112;-57
2021/12/07 07:23:23;;;;;;;34.83;17.98;;;;;;;-0.07;90.68;97616.25;1747036;80;21477;-57
2021/12/07 07:25:49;;;;;;;42.43;19.82;;;;;;;-0.13;90.81;97613.64;1749581;81;21060;-58
2021/12/07 07:28:15;;;;;;;66.30;29.95;;;;;;;-0.11;91.02;97619.03;1747823;80;20956;-57
2021/12/07 07:30:41;;;;;;;40.15;20.27;;;;;;;-0.09;90.94;97615.63;1743389;80;21016;-58
2021/12/07 07:33:07;;;;;;;61.30;26.17;;;;;;;-0.07;91.02;97618.09;1748745;80;21593;-57
2021/12/07 07:35:33;;;;;;;68.22;26.93;;;;;;;-0.07;91.23;97627.42;1746652;80;20889;-57
2021/12/07 07:38:00;;;;;;;56.48;23.22;;;;;;;-0.10;91.17;97618.52;1739888;80;20944;-57
2021/12/07 07:40:26;;;;;;;37.78;18.35;;;;;;;-0.09;91.25;97620.14;1742338;80;21039;-57
2021/12/07 07:42:52;;;;;;;33.88;16.27;;;;;;;-0.08;91.07;97623.94;1742912;80;21046;-57
2021/12/07 07:45:18;;;;;;;34.30;17.07;;;;;;;-0.06;91.09;97621.86;1742324;80;21026;-57
2021/12/07 07:47:44;;;;;;;33.92;16.67;;;;;;;-0.07;90.95;97626.09;1716035;81;21124;-57
2021/12/07 07:50:11;;;;;;;37.50;20.23;;;;;;;-0.11;91.35;97621.70;1752237;81;20955;-57
2021/12/07 07:52:37;;;;;;;31.97;15.15;;;;;;;-0.12;91.16;97620.59;1753755;80;21020;-57
2021/12/07 07:55:04;;;;;;;33.65;16.25;;;;;;;-0.12;91.09;97616.59;1742817;80;20898;-57
2021/12/07 07:57:30;;;;;;;39.25;20.08;;;;;;;-0.11;91.09;97624.36;1748214;80;21564;-57
2021/12/07 07:59:55;;;;;;;40.23;21.70;;;;;;;-0.09;90.96;97619.62;1747190;81;20911;-57
2021/12/07 08:02:22;;;;;;;34.67;18.80;;;;;;;-0.06;90.96;97621.05;1747509;80;20906;-57
2021/12/07 08:04:48;;;;;;;38.02;20.10;;;;;;;-0.01;90.96;97619.33;1743808;81;21063;-57
2021/12/07 08:07:13;;;;;;;33.73;17.05;;;;;;;0.01;91.11;97624.98;1743164;81;20928;-57
2021/12/07 08:09:40;;;;;;;32.58;17.92;;;;;;;-0.06;90.83;97626.38;1743280;81;23359;-57
2021/12/07 08:12:06;;;;;;;35.55;17.10;;;;;;;-0.09;90.86;97632.94;1752971;81;21051;-57
2021/12/07 08:14:33;;;;;;;49.18;22.27;;;;;;;-0.05;91.07;97628.81;1743035;80;20998;-57
2021/12/07 08:16:59;;;;;;;39.40;20.12;;;;;;;-0.04;91.18;97626.45;1761903;80;21073;-57
2021/12/07 08:19:25;;;;;;;30.82;17.37;;;;;;;-0.02;91.08;97626.22;1748004;80;21866;-57
2021/12/07 08:21:51;;;;;;;31.95;15.05;;;;;;;0.02;90.89;97626.09;1743881;81;21039;-57
2021/12/07 08:24:17;;;;;;;31.73;15.88;;;;;;;0.04;90.84;97624.01;1748462;81;20990;-58
2021/12/07 08:26:43;;;;;;;34.95;15.23;;;;;;;0.02;90.92;97621.28;1749765;81;21226;-57
2021/12/07 08:29:09;;;;;;;43.85;21.60;;;;;;;-0.11;90.82;97627.55;1750713;80;21019;-57
2021/12/07 08:31:35;;;;;;;36.35;16.62;;;;;;;-0.07;91.08;97620.76;1744186;80;21656;-57
2021/12/07 08:34:01;;;;;;;33.28;19.92;;;;;;;-0.18;90.89;97622.28;1742047;81;21346;-57
2021/12/07 08:36:28;;;;;;;78.02;37.05;;;;;;;-0.17;90.91;97621.27;1743353;80;20929;-57
2021/12/07 08:38:54;;;;;;;83.67;38.05;;;;;;;-0.14;91.19;97617.34;1751072;80;20984;-57
2021/12/07 08:41:20;;;;;;;34.75;18.23;;;;;;;-0.10;91.47;97624.66;1754293;80;21589;-57
2021/12/07 08:43:45;;;;;;;36.50;17.57;;;;;;;-0.09;91.33;97630.80;1764052;80;20904;-57
2021/12/07 08:46:13;;;;;;;28.83;15.30;;;;;;;-0.12;90.86;97624.59;1742342;80;21123;-57
2021/12/07 08:48:39;;;;;;;45.63;22.50;;;;;;;-0.12;90.82;97625.92;1742717;81;21062;-57
2021/12/07 08:51:06;;;;;;;34.03;17.23;;;;;;;-0.10;90.46;97626.51;1743032;80;20995;-57
2021/12/07 08:53:33;;;;;;;45.83;22.17;;;;;;;-0.10;90.17;97624.66;1716905;81;21522;-57
2021/12/07 09:01:28;;;;;;;43.08;19.87;;;;;;;0.08;89.96;97612.38;1749904;80;21029;-57
2021/12/07 09:03:55;;;;;;;42.58;18.77;;;;;;;0.14;89.87;97615.49;1755584;80;20960;-58
2021/12/07 09:06:21;;;;;;;36.95;18.57;;;;;;;0.19;89.63;97615.66;1747566;80;21582;-57
2021/12/07 09:08:47;;;;;;;43.95;20.32;;;;;;;0.12;89.02;97619.72;1742042;80;20980;-57
2021/12/07 09:11:13;;;;;;;39.03;19.92;;;;;;;0.15;89.07;97621.11;1742477;80;21316;-57
2021/12/07 09:13:40;;;;;;;42.10;19.60;;;;;;;0.13;88.94;97620.02;1741559;81;21030;-57
2021/12/07 09:16:08;;;;;;;46.55;22.50;;;;;;;0.19;89.25;97619.12;1744738;80;21086;-57
2021/12/07 09:18:34;;;;;;;57.33;27.60;;;;;;;0.25;89.54;97626.73;1746159;80;21157;-57
2021/12/07 09:21:00;;;;;;;53.55;25.48;;;;;;;0.27;89.39;97626.02;1744158;80;21180;-58
2021/12/07 09:23:26;;;;;;;35.10;17.77;;;;;;;0.31;89.40;97625.84;1742650;80;21158;-57
2021/12/07 09:25:52;;;;;;;31.02;15.38;;;;;;;0.27;88.70;97624.68;1748367;80;20872;-58
2021/12/07 09:28:18;;;;;;;33.28;15.75;;;;;;;0.24;88.62;97626.44;1743396;80;21117;-57
2021/12/07 09:30:50;;;;;;;46.37;23.75;;;;;;;0.20;88.78;97627.94;1744667;80;21041;-57
2021/12/07 09:33:11;;;;;;;52.88;25.92;;;;;;;0.22;89.15;97629.85;1742238;80;20991;-58
2021/12/07 09:35:37;;;;;;;44.60;19.37;;;;;;;0.28;89.29;97626.30;1744629;80;21360;-57
2021/12/07 09:38:03;;;;;;;29.82;15.28;;;;;;;0.28;89.27;97627.11;1755384;80;20963;-57
2021/12/07 09:40:29;;;;;;;33.92;16.27;;;;;;;0.24;88.71;97627.25;1748278;80;20961;-57
2021/12/07 09:42:56;;;;;;;47.67;25.60;;;;;;;0.26;88.70;97631.05;1747157;80;21451;-57
2021/12/07 09:45:23;;;;;;;51.05;22.55;;;;;;;0.25;88.76;97620.88;1742490;80;21747;-57
2021/12/07 09:47:48;;;;;;;50.48;23.45;;;;;;;0.31;88.99;97627.70;1743770;80;21106;-57
2021/12/07 09:50:19;;;;;;;53.90;29.92;;;;;;;0.33;88.87;97627.76;1742691;81;21676;-57
2021/12/07 09:52:45;;;;;;;47.23;21.37;;;;;;;0.24;88.29;97627.25;1746416;80;21417;-57
2021/12/07 09:55:12;;;;;;;35.00;17.15;;;;;;;0.33;88.69;97625.61;1728224;80;21008;-57
2021/12/07 09:57:37;;;;;;;41.83;20.88;;;;;;;0.22;87.91;97617.86;1752011;80;21036;-57
2021/12/07 10:00:06;;;;;;;39.95;18.73;;;;;;;0.33;88.56;97620.28;1743991;80;21137;-57
2021/12/07 10:02:32;;;;;;;43.75;20.20;;;;;;;0.23;88.07;97617.63;1743432;80;20995;-57
2021/12/07 10:04:58;;;;;;;33.02;15.53;;;;;;;0.12;88.65;97619.72;1743054;81;20888;-57
2021/12/07 10:07:24;;;;;;;38.40;19.50;;;;;;;0.13;88.75;97618.67;1741147;80;21628;-57
2021/12/07 10:09:50;;;;;;;38.70;18.42;;;;;;;0.13;88.65;97621.86;1741463;81;20900;-57
2021/12/07 10:12:21;;;;;;;45.78;21.57;;;;;;;0.13;88.83;97617.86;1749209;80;20959;-57
2021/12/07 10:14:47;;;;;;;39.38;21.23;;;;;;;0.04;88.86;97622.67;1748417;80;21068;-57
2021/12/07 10:17:13;;;;;;;38.20;20.85;;;;;;;-0.04;88.38;97630.44;1744150;80;21106;-57
2021/12/07 10:19:43;;;;;;;42.13;22.02;;;;;;;-0.03;88.77;97631.25;1742489;81;20868;-57
2021/12/07 10:22:15;;;;;;;41.23;20.23;;;;;;;-0.14;88.37;97624.81;1742610;81;27479;-57
2021/12/07 10:24:49;;;;;;;84.83;49.48;;;;;;;-0.10;88.62;97625.17;1742304;81;21144;-57
2021/12/07 10:27:39;;;;;;;42.23;19.32;;;;;;;-0.16;88.72;97622.09;1738577;81;21600;-57
2021/12/07 10:30:13;;;;;;;32.38;17.60;;;;;;;-0.11;88.29;97627.03;1724782;81;21039;-57
2021/12/07 10:32:40;;;;;;;32.53;17.45;;;;;;;-0.17;88.09;97627.94;1763799;80;20993;-57
2021/12/07 10:35:31;;;;;;;44.42;21.10;;;;;;;-0.06;88.45;97629.05;1747931;80;21557;-57
2021/12/07 10:38:17;;;;;;;41.77;19.27;;;;;;;0.02;88.71;97626.09;1754828;80;21984;-57
2021/12/07 10:40:57;;;;;;;42.48;24.43;;;;;;;0.11;88.78;97626.09;1751472;80;21053;-57
2021/12/07 10:43:52;;;;;;;36.98;17.52;;;;;;;0.20;88.63;97623.42;1755114;80;21117;-57
2021/12/07 10:46:33;;;;;;;50.92;21.82;;;;;;;0.18;87.95;97626.83;1745464;81;21059;-57
2021/12/07 10:49:21;;;;;;;42.80;21.77;;;;;;;0.21;88.47;97626.38;1738521;80;21007;-57
2021/12/07 10:52:13;;;;;;;37.17;18.57;;;;;;;0.14;87.56;97640.80;1745902;80;21101;-57
2021/12/07 10:55:03;;;;;;;43.15;20.55;;;;;;;0.06;87.30;97635.77;1748179;80;20976;-57
2021/12/07 10:57:44;;;;;;;42.48;20.52;;;;;;;0.05;87.87;97638.14;1745535;80;21079;-57
2021/12/07 11:00:36;;;;;;;41.73;19.90;;;;;;;0.01;88.01;97626.31;1740207;81;21245;-57
2021/12/07 11:03:05;;;;;;;43.02;21.55;;;;;;;0.06;88.22;97627.78;1763879;80;21094;-58
2021/12/07 11:05:43;;;;;;;43.73;20.80;;;;;;;0.11;88.22;97634.08;1741216;80;21113;-58
2021/12/07 11:08:10;;;;;;;51.02;24.18;;;;;;;0.14;88.24;97626.97;1742574;81;20992;-58
2021/12/07 11:10:39;;;;;;;41.28;20.57;;;;;;;0.12;88.28;97632.23;1748841;80;20986;-58
2021/12/07 11:13:13;;;;;;;49.83;22.02;;;;;;;-0.02;88.64;97631.03;1740846;80;21506;-58
2021/12/07 11:15:47;;;;;;;42.20;19.98;;;;;;;-0.01;88.52;97629.17;1741852;80;21042;-57
2021/12/07 11:18:10;;;;;;;52.93;24.92;;;;;;;-0.04;88.88;97629.63;1740179;80;21152;-58
2021/12/07 11:20:36;;;;;;;48.80;22.10;;;;;;;-0.02;88.90;97632.88;1749668;80;20988;-58
2021/12/07 11:23:16;;;;;;;40.35;21.52;;;;;;;0.01;88.81;97628.98;1743586;80;21557;-58
2021/12/07 11:31:23;;;;;;;46.45;23.38;;;;;;;0.09;88.72;97626.84;1745522;80;21087;-58
2021/12/07 11:33:52;;;;;;;44.98;20.68;;;;;;;0.13;88.69;97629.34;1736243;80;20998;-58
2021/12/07 11:36:26;;;;;;;41.58;19.67;;;;;;;0.02;88.11;97630.09;1753075;80;21822;-58
2021/12/07 11:38:53;;;;;;;61.65;33.08;;;;;;;0.02;88.74;97627.94;1752746;80;21176;-58
2021/12/07 11:41:25;;;;;;;45.45;22.22;;;;;;;0.05;88.68;97632.30;1749183;80;21091;-58
2021/12/07 11:43:57;;;;;;;50.80;25.23;;;;;;;-0.01;88.79;97630.51;1754382;80;22019;-57
2021/12/07 11:46:24;;;;;;;43.05;22.25;;;;;;;-0.04;89.01;97629.11;1752065;80;21466;-58
2021/12/07 11:49:10;;;;;;;53.55;28.07;;;;;;;-0.10;88.98;97638.50;1744881;80;21061;-57
2021/12/07 11:51:37;;;;;;;51.63;24.95;;;;;;;-0.02;89.08;97636.88;1743856;80;21070;-58
2021/12/07 11:54:03;;;;;;;47.45;25.23;;;;;;;0.05;89.01;97632.81;1741118;81;21486;-58
2021/12/07 11:56:30;;;;;;;53.75;24.90;;;;;;;0.03;89.13;97633.56;1741602;80;21067;-58
2021/12/07 11:58:56;;;;;;;54.73;24.92;;;;;;;-0.04;89.00;97639.77;1739688;80;21058;-58
2021/12/07 12:01:22;;;;;;;52.73;25.85;;;;;;;-0.06;89.13;97636.52;1741316;81;21002;-58
2021/12/07 12:03:48;;;;;;;55.50;27.05;;;;;;;-0.03;89.02;97640.06;1738447;80;20955;-57
2021/12/07 12:06:14;;;;;;;51.00;23.73;;;;;;;0.01;89.38;97639.64;1751368;80;20999;-57
2021/12/07 12:08:40;;;;;;;49.55;23.62;;;;;;;-0.03;89.04;97631.25;1744516;81;21070;-58
2021/12/07 12:11:21;;;;;;;41.68;21.65;;;;;;;0.03;88.99;97630.89;1749383;81;21717;-57
2021/12/07 12:14:34;;;;;;;50.00;23.20;;;;;;;0.01;88.71;97628.98;1741738;81;21488;-57
2021/12/07 12:17:35;;;;;;;54.18;25.08;;;;;;;0.01;88.64;97631.13;1743976;80;21656;-57
2021/12/07 12:20:56;;;;;;;54.93;24.23;;;;;;;-0.11;88.63;97634.20;1752169;80;21015;-57
2021/12/07 12:24:00;;;;;;;44.60;20.80;;;;;;;-0.07;88.93;97637.55;1764583;80;22063;-57
2021/12/07 12:26:26;;;;;;;50.73;24.57;;;;;;;-0.19;89.64;97637.97;1748883;80;21102;-57
2021/12/07 12:28:53;;;;;;;52.40;26.15;;;;;;;-0.32;89.92;97644.77;1742110;80;21004;-57
2021/12/07 12:31:22;;;;;;;51.20;23.70;;;;;;;-0.35;90.27;97643.34;1745315;81;21162;-57
2021/12/07 12:33:51;;;;;;;53.65;25.30;;;;;;;-0.40;90.66;97643.72;1754847;80;21095;-56
2021/12/07 12:36:19;;;;;;;68.80;37.67;;;;;;;-0.40;90.62;97639.20;1763376;80;21136;-58
2021/12/07 12:38:49;;;;;;;50.75;26.27;;;;;;;-0.34;90.38;97642.33;1769326;79;21128;-58
2021/12/07 12:41:16;;;;;;;51.55;22.40;;;;;;;-0.36;90.34;97642.23;1717286;80;21521;-58
2021/12/07 12:43:51;;;;;;;52.95;23.60;;;;;;;-0.27;89.82;97644.09;1757382;80;20973;-58
2021/12/07 12:46:28;;;;;;;48.95;23.18;;;;;;;-0.26;89.45;97638.55;1771370;80;21064;-58
2021/12/07 12:49:04;;;;;;;50.65;25.60;;;;;;;-0.26;89.80;97639.88;1748171;80;21157;-57
2021/12/07 12:51:45;;;;;;;44.10;23.87;;;;;;;-0.30;88.98;97638.18;1739794;80;21054;-58
2021/12/07 12:54:11;;;;;;;52.38;22.90;;;;;;;-0.30;89.17;97644.03;1740953;80;21070;-58
2021/12/07 12:56:39;;;;;;;45.98;21.82;;;;;;;-0.22;89.27;97639.75;1757642;80;21193;-57
2021/12/07 12:59:09;;;;;;;46.00;21.02;;;;;;;-0.18;89.27;97647.58;1765794;80;20997;-58
2021/12/07 13:01:44;;;;;;;44.48;22.15;;;;;;;-0.15;89.27;97652.48;1756445;80;21730;-58
2021/12/07 13:04:24;;;;;;;49.15;23.77;;;;;;;-0.16;88.33;97656.19;1742788;80;21003;-57
2021/12/07 13:09:39;;;;;;;46.08;23.27;;;;;;;-0.09;89.06;97660.09;1757759;80;21131;-58
2021/12/07 13:12:20;;;;;;;46.50;21.90;;;;;;;-0.07;88.42;97661.53;1744120;81;21418;-57
2021/12/07 13:14:59;;;;;;;72.62;33.40;;;;;;;-0.16;87.89;97662.84;1735513;81;21483;-58